createdAt,value
2023-06-15T03:58:16.907Z,81.56
2023-06-15T04:01:20.915Z,81.56
2023-06-15T04:04:23.714Z,87.57
2023-06-15T04:07:26.817Z,83.26
2023-06-15T04:10:29.310Z,82.91
2023-06-15T04:13:32.004Z,84.26
2023-06-15T04:16:36.835Z,82.88
2023-06-15T04:19:39.295Z,81.88
2023-06-15T04:22:41.759Z,81.55
2023-06-15T04:25:43.887Z,80.79
2023-06-15T04:28:46.524Z,78.78
2023-06-15T04:31:56.128Z,78.90
2023-06-15T04:34:59.084Z,77.81
2023-06-15T04:38:06.170Z,77.48
2023-06-15T04:41:09.019Z,76.50
2023-06-15T04:44:11.704Z,84.59
2023-06-15T04:47:14.897Z,78.21
2023-06-15T04:50:17.540Z,77.35
2023-06-15T04:53:20.108Z,77.48
2023-06-15T04:56:23.888Z,80.10
2023-06-15T04:59:28.414Z,81.51
2023-06-15T05:02:30.747Z,75.29
2023-06-15T05:05:33.568Z,79.72
2023-06-15T05:08:36.414Z,79.21
2023-06-15T05:11:40.042Z,80.42
2023-06-15T05:14:42.332Z,73.66
2023-06-15T05:17:45.350Z,79.35
2023-06-15T05:20:48.226Z,72.16
2023-06-15T05:23:50.812Z,75.23
2023-06-15T05:26:53.287Z,69.29
2023-06-15T05:29:56.165Z,74.07
2023-06-15T05:32:58.589Z,69.02
2023-06-15T05:36:08.958Z,66.82
2023-06-15T05:39:21.770Z,68.35
2023-06-15T05:42:26.976Z,66.46
2023-06-15T05:45:31.268Z,62.79
2023-06-15T05:48:34.045Z,64.45
2023-06-15T05:51:36.540Z,65.07
2023-06-15T05:54:39.213Z,64.66
2023-06-15T05:57:41.506Z,64.87
2023-06-15T06:00:44.031Z,63.17
2023-06-15T06:03:46.540Z,63.10
2023-06-15T06:06:50.462Z,59.80
2023-06-15T06:09:53.445Z,63.80
2023-06-15T06:12:56.068Z,61.82
2023-06-15T06:15:58.529Z,62.42
2023-06-15T06:19:01.103Z,68.59
2023-06-15T06:22:04.004Z,62.86
2023-06-15T06:25:07.675Z,60.00
2023-06-15T06:28:11.097Z,60.47
2023-06-15T06:31:13.426Z,56.62
2023-06-15T06:34:16.252Z,58.58
2023-06-15T06:37:18.427Z,60.18
2023-06-15T06:40:22.609Z,57.64
2023-06-15T06:43:24.947Z,57.56
2023-06-15T06:46:31.672Z,58.53
2023-06-15T06:49:35.199Z,57.33
2023-06-15T06:52:38.733Z,55.84
2023-06-15T06:55:40.983Z,56.37
2023-06-15T06:58:44.400Z,58.58
2023-06-15T07:01:47.619Z,56.67
2023-06-15T07:04:50.063Z,54.60
2023-06-15T07:07:52.266Z,61.66
2023-06-15T07:10:54.954Z,57.58
2023-06-15T07:13:57.132Z,55.15
2023-06-15T07:16:59.539Z,54.86
2023-06-15T07:20:01.994Z,53.76
2023-06-15T07:23:04.847Z,53.37
2023-06-15T07:26:07.038Z,52.64
2023-06-15T07:29:09.577Z,52.25
2023-06-15T07:32:12.378Z,53.47
2023-06-15T07:35:14.923Z,53.50
2023-06-15T07:38:17.059Z,49.50
2023-06-15T07:41:20.048Z,50.20
2023-06-15T07:44:22.603Z,51.21
2023-06-15T07:47:25.178Z,51.59
2023-06-15T07:50:29.980Z,48.88
2023-06-15T07:53:32.481Z,55.52
2023-06-15T07:56:34.679Z,50.34
2023-06-15T07:59:37.217Z,51.19
2023-06-15T08:02:39.502Z,45.56
2023-06-15T08:05:42.148Z,44.76
2023-06-15T08:08:46.075Z,43.62
2023-06-15T08:11:50.303Z,49.89
2023-06-15T08:14:53.015Z,49.11
2023-06-15T08:17:55.623Z,45.48
2023-06-15T08:20:58.202Z,44.13
2023-06-15T08:24:00.912Z,43.50
2023-06-15T08:27:03.393Z,40.32
2023-06-15T08:30:06.995Z,41.29
2023-06-15T08:33:09.369Z,41.45
2023-06-15T08:36:12.277Z,41.24
2023-06-15T08:39:14.559Z,42.07
2023-06-15T08:42:18.411Z,45.23
2023-06-15T08:45:20.633Z,40.03
2023-06-15T08:48:24.969Z,40.22
2023-06-15T08:51:27.232Z,40.28
2023-06-15T08:54:33.472Z,42.92
2023-06-15T08:57:36.783Z,41.01
2023-06-15T09:00:39.295Z,45.93
2023-06-15T09:03:42.879Z,41.54
2023-06-15T09:06:45.497Z,43.60
2023-06-15T09:10:09.670Z,42.22
2023-06-15T09:13:18.425Z,40.72
2023-06-15T09:16:21.135Z,40.31
2023-06-15T09:19:23.635Z,40.87
2023-06-15T09:22:28.628Z,41.61
2023-06-15T09:25:33.091Z,43.37
2023-06-15T09:28:35.424Z,42.46
2023-06-15T09:31:38.282Z,41.31
2023-06-15T09:34:40.707Z,42.69
2023-06-15T09:37:43.381Z,43.15
2023-06-15T09:40:45.748Z,45.13
2023-06-15T09:43:48.736Z,43.76
2023-06-15T09:46:55.808Z,39.64
2023-06-15T09:49:59.440Z,43.44
2023-06-15T09:53:03.915Z,42.57
2023-06-15T09:56:17.278Z,43.07
2023-06-15T09:59:30.180Z,46.13
2023-06-15T10:02:36.447Z,41.59
2023-06-15T10:05:45.548Z,43.13
2023-06-15T10:08:52.811Z,40.20
2023-06-15T10:11:59.359Z,42.82
2023-06-15T10:15:08.579Z,43.61
2023-06-15T10:18:14.021Z,43.43
2023-06-15T10:21:24.308Z,50.45
2023-06-15T10:24:29.942Z,43.34
2023-06-15T10:27:32.233Z,42.79
2023-06-15T10:30:58.305Z,41.86
2023-06-15T10:34:09.918Z,42.08
2023-06-15T10:37:29.778Z,43.58
2023-06-15T10:40:39.328Z,41.62
2023-06-15T10:43:58.281Z,39.84
2023-06-15T10:47:12.124Z,40.13
2023-06-15T10:50:18.106Z,41.02
2023-06-15T10:53:25.832Z,40.51
2023-06-15T10:56:28.965Z,42.66
2023-06-15T10:59:54.438Z,42.39
2023-06-15T11:03:00.783Z,40.46
2023-06-15T11:06:08.781Z,38.86
2023-06-15T11:09:15.018Z,41.39
2023-06-15T11:12:37.684Z,41.99
2023-06-15T11:15:41.689Z,41.14
2023-06-15T11:19:14.312Z,39.36
2023-06-15T11:22:27.470Z,38.89
2023-06-15T11:25:31.195Z,39.50
2023-06-15T11:28:38.483Z,39.41
2023-06-15T11:31:44.404Z,39.75
2023-06-15T11:34:47.829Z,41.19
2023-06-15T11:37:51.786Z,39.91
2023-06-15T11:41:03.184Z,37.87
2023-06-15T11:44:09.615Z,39.20
2023-06-15T11:47:12.712Z,36.42
2023-06-15T11:50:19.477Z,36.32
2023-06-15T11:53:22.544Z,35.46
2023-06-15T11:56:25.345Z,35.81
2023-06-15T11:59:28.839Z,35.52
2023-06-15T12:02:31.171Z,37.39
2023-06-15T12:05:34.135Z,36.92
2023-06-15T12:08:36.514Z,35.03
2023-06-15T12:11:39.063Z,35.94
2023-06-15T12:14:43.302Z,34.66
2023-06-15T12:17:46.197Z,35.48
2023-06-15T12:20:48.868Z,34.70
2023-06-15T12:23:52.257Z,34.45
2023-06-15T12:26:59.584Z,35.89
2023-06-15T12:30:18.795Z,36.56
2023-06-15T12:33:32.935Z,36.67
2023-06-15T12:36:38.377Z,36.69
2023-06-15T12:39:41.072Z,35.25
2023-06-15T12:42:43.529Z,35.01
2023-06-15T12:45:45.853Z,35.67
2023-06-15T12:48:48.407Z,38.12
2023-06-15T12:51:52.101Z,37.85
2023-06-15T12:54:55.696Z,35.70
2023-06-15T12:57:58.579Z,35.77
2023-06-15T13:01:01.625Z,38.45
2023-06-15T13:04:04.078Z,37.44
2023-06-15T13:07:06.815Z,36.02
2023-06-15T13:10:13.894Z,34.60
2023-06-15T13:13:16.375Z,34.75
2023-06-15T13:16:18.723Z,34.68
2023-06-15T13:19:21.718Z,33.67
2023-06-15T13:22:23.903Z,33.56
2023-06-15T13:25:26.416Z,35.67
2023-06-15T13:28:28.666Z,33.74
2023-06-15T13:31:31.266Z,35.34
2023-06-15T13:34:34.061Z,32.86
2023-06-15T13:37:38.022Z,33.14
2023-06-15T13:40:40.262Z,33.93
2023-06-15T13:43:42.679Z,37.29
2023-06-15T13:46:44.977Z,35.53
2023-06-15T13:49:48.612Z,35.00
2023-06-15T13:52:51.494Z,36.78
2023-06-15T13:55:53.930Z,34.71
2023-06-15T13:58:57.699Z,36.43
2023-06-15T14:02:00.783Z,34.16
2023-06-15T14:05:03.671Z,40.78
2023-06-15T14:08:05.822Z,36.77
2023-06-15T14:11:08.244Z,34.48
2023-06-15T14:14:10.424Z,34.41
2023-06-15T14:17:12.876Z,32.85
2023-06-15T14:20:15.106Z,33.91
2023-06-15T14:23:18.280Z,33.67
2023-06-15T14:26:20.498Z,35.98
2023-06-15T14:29:22.944Z,35.23
2023-06-15T14:32:25.784Z,32.79
2023-06-15T14:35:28.365Z,33.99
2023-06-15T14:38:30.493Z,35.36
2023-06-15T14:41:32.942Z,34.71
2023-06-15T14:44:35.137Z,34.98
2023-06-15T14:47:38.743Z,36.47
2023-06-15T14:50:41.831Z,35.00
2023-06-15T14:53:46.312Z,36.11
2023-06-15T14:56:48.520Z,35.18
2023-06-15T14:59:51.050Z,35.78
2023-06-15T15:02:53.347Z,34.80
2023-06-15T15:05:55.826Z,35.28
2023-06-15T15:08:58.020Z,36.80
2023-06-15T15:12:00.463Z,35.42
2023-06-15T15:15:02.986Z,35.96
2023-06-15T15:18:05.560Z,36.92
2023-06-15T15:21:08.157Z,36.18
2023-06-15T15:24:10.809Z,37.45
2023-06-15T15:27:13.548Z,35.97
